sensor_id;sensor_type;location;lat;lon;timestamp;temperature;humidity
43810;DHT22;29440;48.208;11.162;2023-04-15T00:01:57;6.40;99.90
43810;DHT22;29440;48.208;11.162;2023-04-15T00:04:22;6.40;99.90
43810;DHT22;29440;48.208;11.162;2023-04-15T00:06:52;6.40;99.90
43810;DHT22;29440;48.208;11.162;2023-04-15T00:09:18;6.50;99.90
43810;DHT22;29440;48.208;11.162;2023-04-15T00:11:45;6.40;99.90
43810;DHT22;29440;48.208;11.162;2023-04-15T00:14:12;6.40;99.90
43810;DHT22;29440;48.208;11.162;2023-04-15T00:16:37;6.40;99.90
43810;DHT22;29440;48.208;11.162;2023-04-15T00:19:03;6.40;99.90
43810;DHT22;29440;48.208;11.162;2023-04-15T00:21:29;6.30;99.90
43810;DHT22;29440;48.208;11.162;2023-04-15T00:23:58;6.30;99.90
43810;DHT22;29440;48.208;11.162;2023-04-15T00:26:23;6.30;99.90
43810;DHT22;29440;48.208;11.162;2023-04-15T00:28:49;6.20;99.90
43810;DHT22;29440;48.208;11.162;2023-04-15T00:31:14;6.20;99.90
43810;DHT22;29440;48.208;11.162;2023-04-15T00:33:40;6.20;99.90
43810;DHT22;29440;48.208;11.162;2023-04-15T00:36:06;6.20;99.90
43810;DHT22;29440;48.208;11.162;2023-04-15T00:38:32;6.20;99.90
43810;DHT22;29440;48.208;11.162;2023-04-15T00:40:58;6.20;99.90
43810;DHT22;29440;48.208;11.162;2023-04-15T00:43:24;6.20;99.90
43810;DHT22;29440;48.208;11.162;2023-04-15T00:45:52;6.20;99.90
43810;DHT22;29440;48.208;11.162;2023-04-15T00:48:19;6.20;99.90
43810;DHT22;29440;48.208;11.162;2023-04-15T00:50:44;6.20;99.90
43810;DHT22;29440;48.208;11.162;2023-04-15T00:53:10;6.10;99.90
43810;DHT22;29440;48.208;11.162;2023-04-15T00:55:36;6.10;99.90
43810;DHT22;29440;48.208;11.162;2023-04-15T00:58:02;6.10;99.90
43810;DHT22;29440;48.208;11.162;2023-04-15T01:00:28;6.10;99.90
43810;DHT22;29440;48.208;11.162;2023-04-15T01:02:54;6.00;99.90
43810;DHT22;29440;48.208;11.162;2023-04-15T01:05:20;6.00;99.90
43810;DHT22;29440;48.208;11.162;2023-04-15T01:07:46;6.00;99.90
43810;DHT22;29440;48.208;11.162;2023-04-15T01:10:12;6.00;99.90
43810;DHT22;29440;48.208;11.162;2023-04-15T01:12:38;6.00;99.90
43810;DHT22;29440;48.208;11.162;2023-04-15T01:15:05;6.00;99.90
43810;DHT22;29440;48.208;11.162;2023-04-15T01:17:31;5.90;99.90
43810;DHT22;29440;48.208;11.162;2023-04-15T01:19:57;5.90;99.90
43810;DHT22;29440;48.208;11.162;2023-04-15T01:22:23;5.90;99.90
43810;DHT22;29440;48.208;11.162;2023-04-15T01:24:58;5.90;99.90
43810;DHT22;29440;48.208;11.162;2023-04-15T01:27:26;5.90;99.90
43810;DHT22;29440;48.208;11.162;2023-04-15T01:29:52;5.80;99.90
43810;DHT22;29440;48.208;11.162;2023-04-15T01:32:18;5.80;99.90
43810;DHT22;29440;48.208;11.162;2023-04-15T01:34:44;5.80;99.90
43810;DHT22;29440;48.208;11.162;2023-04-15T01:37:10;5.80;99.90
43810;DHT22;29440;48.208;11.162;2023-04-15T01:39:36;5.70;99.90
43810;DHT22;29440;48.208;11.162;2023-04-15T01:42:01;5.70;99.90
43810;DHT22;29440;48.208;11.162;2023-04-15T01:44:28;5.60;99.90
43810;DHT22;29440;48.208;11.162;2023-04-15T01:46:54;5.60;99.90
43810;DHT22;29440;48.208;11.162;2023-04-15T01:49:19;5.60;99.90
43810;DHT22;29440;48.208;11.162;2023-04-15T01:51:45;5.60;99.90
43810;DHT22;29440;48.208;11.162;2023-04-15T01:54:10;5.50;99.90
43810;DHT22;29440;48.208;11.162;2023-04-15T01:56:36;5.50;99.90
43810;DHT22;29440;48.208;11.162;2023-04-15T01:59:01;5.50;99.90
43810;DHT22;29440;48.208;11.162;2023-04-15T02:01:28;5.50;99.90
43810;DHT22;29440;48.208;11.162;2023-04-15T02:03:53;5.50;99.90
43810;DHT22;29440;48.208;11.162;2023-04-15T02:09:08;5.50;99.90
43810;DHT22;29440;48.208;11.162;2023-04-15T02:11:34;5.40;99.90
43810;DHT22;29440;48.208;11.162;2023-04-15T02:14:01;5.40;99.90
43810;DHT22;29440;48.208;11.162;2023-04-15T02:16:28;5.40;99.90
43810;DHT22;29440;48.208;11.162;2023-04-15T02:18:54;5.40;99.90
43810;DHT22;29440;48.208;11.162;2023-04-15T02:21:19;5.40;99.90
43810;DHT22;29440;48.208;11.162;2023-04-15T02:23:45;5.40;99.90
43810;DHT22;29440;48.208;11.162;2023-04-15T02:26:13;5.40;99.90
43810;DHT22;29440;48.208;11.162;2023-04-15T02:28:38;5.40;99.90
43810;DHT22;29440;48.208;11.162;2023-04-15T02:31:05;5.40;99.90
43810;DHT22;29440;48.208;11.162;2023-04-15T02:33:31;5.40;99.90
43810;DHT22;29440;48.208;11.162;2023-04-15T02:35:56;5.50;99.90
43810;DHT22;29440;48.208;11.162;2023-04-15T02:38:23;5.40;99.90
43810;DHT22;29440;48.208;11.162;2023-04-15T02:40:49;5.40;99.90
43810;DHT22;29440;48.208;11.162;2023-04-15T02:43:15;5.40;99.90
43810;DHT22;29440;48.208;11.162;2023-04-15T02:45:42;5.40;99.90
43810;DHT22;29440;48.208;11.162;2023-04-15T02:48:08;5.40;99.90
43810;DHT22;29440;48.208;11.162;2023-04-15T02:50:34;5.40;99.90
43810;DHT22;29440;48.208;11.162;2023-04-15T02:53:00;5.40;99.90
43810;DHT22;29440;48.208;11.162;2023-04-15T02:55:26;5.40;99.90
43810;DHT22;29440;48.208;11.162;2023-04-15T02:57:51;5.40;99.90
43810;DHT22;29440;48.208;11.162;2023-04-15T03:00:17;5.40;99.90
43810;DHT22;29440;48.208;11.162;2023-04-15T03:02:44;5.40;99.90
43810;DHT22;29440;48.208;11.162;2023-04-15T03:05:12;5.30;99.90
43810;DHT22;29440;48.208;11.162;2023-04-15T03:07:38;5.30;99.90
43810;DHT22;29440;48.208;11.162;2023-04-15T03:10:06;5.30;99.90
43810;DHT22;29440;48.208;11.162;2023-04-15T03:12:32;5.30;99.90
43810;DHT22;29440;48.208;11.162;2023-04-15T03:14:57;5.30;99.90
43810;DHT22;29440;48.208;11.162;2023-04-15T03:17:24;5.30;99.90
43810;DHT22;29440;48.208;11.162;2023-04-15T03:19:50;5.30;99.90
43810;DHT22;29440;48.208;11.162;2023-04-15T03:22:15;5.30;99.90
43810;DHT22;29440;48.208;11.162;2023-04-15T03:24:41;5.30;99.90
43810;DHT22;29440;48.208;11.162;2023-04-15T03:27:06;5.30;99.90
43810;DHT22;29440;48.208;11.162;2023-04-15T03:29:33;5.30;99.90
43810;DHT22;29440;48.208;11.162;2023-04-15T03:31:58;5.30;99.90
43810;DHT22;29440;48.208;11.162;2023-04-15T03:34:24;5.30;99.90
43810;DHT22;29440;48.208;11.162;2023-04-15T03:36:49;5.30;99.90
43810;DHT22;29440;48.208;11.162;2023-04-15T03:39:15;5.30;99.90
43810;DHT22;29440;48.208;11.162;2023-04-15T03:41:41;5.30;99.90
43810;DHT22;29440;48.208;11.162;2023-04-15T03:44:10;5.30;99.90
43810;DHT22;29440;48.208;11.162;2023-04-15T03:46:37;5.30;99.90
43810;DHT22;29440;48.208;11.162;2023-04-15T03:49:03;5.30;99.90
43810;DHT22;29440;48.208;11.162;2023-04-15T03:51:29;5.30;99.90
43810;DHT22;29440;48.208;11.162;2023-04-15T03:53:55;5.30;99.90
43810;DHT22;29440;48.208;11.162;2023-04-15T03:56:21;5.30;99.90
43810;DHT22;29440;48.208;11.162;2023-04-15T03:58:46;5.30;99.90
43810;DHT22;29440;48.208;11.162;2023-04-15T04:01:12;5.30;99.90
43810;DHT22;29440;48.208;11.162;2023-04-15T04:03:37;5.30;99.90
43810;DHT22;29440;48.208;11.162;2023-04-15T04:06:03;5.30;99.90
43810;DHT22;29440;48.208;11.162;2023-04-15T04:08:29;5.30;99.90
43810;DHT22;29440;48.208;11.162;2023-04-15T04:10:54;5.30;99.90
43810;DHT22;29440;48.208;11.162;2023-04-15T04:13:20;5.30;99.90
43810;DHT22;29440;48.208;11.162;2023-04-15T04:15:46;5.30;99.90
43810;DHT22;29440;48.208;11.162;2023-04-15T04:18:11;5.30;99.90
43810;DHT22;29440;48.208;11.162;2023-04-15T04:20:37;5.30;99.90
43810;DHT22;29440;48.208;11.162;2023-04-15T04:23:02;5.30;99.90
43810;DHT22;29440;48.208;11.162;2023-04-15T04:25:28;5.30;99.90
43810;DHT22;29440;48.208;11.162;2023-04-15T04:27:53;5.30;99.90
43810;DHT22;29440;48.208;11.162;2023-04-15T04:30:19;5.30;99.90
43810;DHT22;29440;48.208;11.162;2023-04-15T04:32:44;5.30;99.90
43810;DHT22;29440;48.208;11.162;2023-04-15T04:35:10;5.30;99.90
43810;DHT22;29440;48.208;11.162;2023-04-15T04:37:36;5.30;99.90
43810;DHT22;29440;48.208;11.162;2023-04-15T04:40:02;5.30;99.90
43810;DHT22;29440;48.208;11.162;2023-04-15T04:42:27;5.30;99.90
43810;DHT22;29440;48.208;11.162;2023-04-15T04:44:53;5.20;99.90
43810;DHT22;29440;48.208;11.162;2023-04-15T04:47:36;5.30;99.90
43810;DHT22;29440;48.208;11.162;2023-04-15T04:50:01;5.30;99.90
43810;DHT22;29440;48.208;11.162;2023-04-15T04:52:27;5.20;99.90
43810;DHT22;29440;48.208;11.162;2023-04-15T04:54:53;5.30;99.90
43810;DHT22;29440;48.208;11.162;2023-04-15T04:57:18;5.20;99.90
43810;DHT22;29440;48.208;11.162;2023-04-15T04:59:44;5.30;99.90
43810;DHT22;29440;48.208;11.162;2023-04-15T05:02:09;5.30;99.90
43810;DHT22;29440;48.208;11.162;2023-04-15T05:04:35;5.20;99.90
43810;DHT22;29440;48.208;11.162;2023-04-15T05:07:01;5.20;99.90
43810;DHT22;29440;48.208;11.162;2023-04-15T05:09:26;5.20;99.90
43810;DHT22;29440;48.208;11.162;2023-04-15T05:11:52;5.20;99.90
43810;DHT22;29440;48.208;11.162;2023-04-15T05:14:18;5.20;99.90
43810;DHT22;29440;48.208;11.162;2023-04-15T05:16:43;5.20;99.90
43810;DHT22;29440;48.208;11.162;2023-04-15T05:19:09;5.20;99.90
43810;DHT22;29440;48.208;11.162;2023-04-15T05:21:34;5.20;99.90
43810;DHT22;29440;48.208;11.162;2023-04-15T05:24:00;5.20;99.90
43810;DHT22;29440;48.208;11.162;2023-04-15T05:26:25;5.20;99.90
43810;DHT22;29440;48.208;11.162;2023-04-15T05:28:51;5.30;99.90
43810;DHT22;29440;48.208;11.162;2023-04-15T05:31:17;5.20;99.90
43810;DHT22;29440;48.208;11.162;2023-04-15T05:33:42;5.30;99.90
43810;DHT22;29440;48.208;11.162;2023-04-15T05:36:08;5.30;99.90
43810;DHT22;29440;48.208;11.162;2023-04-15T05:38:34;5.30;99.90
43810;DHT22;29440;48.208;11.162;2023-04-15T05:41:01;5.30;99.90
43810;DHT22;29440;48.208;11.162;2023-04-15T05:43:26;5.30;99.90
43810;DHT22;29440;48.208;11.162;2023-04-15T05:45:52;5.40;99.90
43810;DHT22;29440;48.208;11.162;2023-04-15T05:48:17;5.40;99.90
43810;DHT22;29440;48.208;11.162;2023-04-15T05:50:43;5.40;99.90
43810;DHT22;29440;48.208;11.162;2023-04-15T05:53:08;5.50;99.90
43810;DHT22;29440;48.208;11.162;2023-04-15T05:55:34;5.50;99.90
43810;DHT22;29440;48.208;11.162;2023-04-15T05:58:01;5.50;99.90
43810;DHT22;29440;48.208;11.162;2023-04-15T06:00:26;5.60;99.90
43810;DHT22;29440;48.208;11.162;2023-04-15T06:02:52;5.70;99.90
43810;DHT22;29440;48.208;11.162;2023-04-15T06:05:26;5.70;99.90
43810;DHT22;29440;48.208;11.162;2023-04-15T06:07:52;5.60;99.90
43810;DHT22;29440;48.208;11.162;2023-04-15T06:10:17;5.70;99.90
43810;DHT22;29440;48.208;11.162;2023-04-15T06:12:51;5.70;99.90
43810;DHT22;29440;48.208;11.162;2023-04-15T06:15:21;5.80;99.90
43810;DHT22;29440;48.208;11.162;2023-04-15T06:17:47;5.70;99.90
43810;DHT22;29440;48.208;11.162;2023-04-15T06:20:21;5.70;99.90
43810;DHT22;29440;48.208;11.162;2023-04-15T06:22:50;5.80;99.90
43810;DHT22;29440;48.208;11.162;2023-04-15T06:25:16;5.70;99.90
43810;DHT22;29440;48.208;11.162;2023-04-15T06:27:42;5.80;99.90
43810;DHT22;29440;48.208;11.162;2023-04-15T06:30:11;5.90;99.90
43810;DHT22;29440;48.208;11.162;2023-04-15T06:32:38;5.80;99.90
43810;DHT22;29440;48.208;11.162;2023-04-15T06:35:07;5.90;99.90
43810;DHT22;29440;48.208;11.162;2023-04-15T06:37:33;5.90;99.90
43810;DHT22;29440;48.208;11.162;2023-04-15T06:39:58;6.00;99.90
43810;DHT22;29440;48.208;11.162;2023-04-15T06:42:24;6.00;99.90
43810;DHT22;29440;48.208;11.162;2023-04-15T06:44:50;6.00;99.90
43810;DHT22;29440;48.208;11.162;2023-04-15T06:47:18;6.00;99.90
43810;DHT22;29440;48.208;11.162;2023-04-15T06:49:44;6.00;99.90
43810;DHT22;29440;48.208;11.162;2023-04-15T06:52:13;6.00;99.90
43810;DHT22;29440;48.208;11.162;2023-04-15T06:54:38;6.00;99.90
43810;DHT22;29440;48.208;11.162;2023-04-15T06:57:05;6.10;99.90
43810;DHT22;29440;48.208;11.162;2023-04-15T06:59:34;6.20;99.90
43810;DHT22;29440;48.208;11.162;2023-04-15T07:02:03;6.20;99.90
43810;DHT22;29440;48.208;11.162;2023-04-15T07:04:32;6.20;99.90
43810;DHT22;29440;48.208;11.162;2023-04-15T07:06:58;6.20;99.90
43810;DHT22;29440;48.208;11.162;2023-04-15T07:09:26;6.20;99.90
43810;DHT22;29440;48.208;11.162;2023-04-15T07:11:52;6.30;99.90
43810;DHT22;29440;48.208;11.162;2023-04-15T07:14:23;6.40;99.90
43810;DHT22;29440;48.208;11.162;2023-04-15T07:16:49;6.40;99.90
43810;DHT22;29440;48.208;11.162;2023-04-15T07:19:15;6.40;99.90
43810;DHT22;29440;48.208;11.162;2023-04-15T07:21:48;6.60;99.90
43810;DHT22;29440;48.208;11.162;2023-04-15T07:24:14;6.60;99.90
43810;DHT22;29440;48.208;11.162;2023-04-15T07:26:43;6.70;99.90
43810;DHT22;29440;48.208;11.162;2023-04-15T07:29:09;6.90;99.90
43810;DHT22;29440;48.208;11.162;2023-04-15T07:31:35;6.90;99.90
43810;DHT22;29440;48.208;11.162;2023-04-15T07:34:07;7.10;99.90
43810;DHT22;29440;48.208;11.162;2023-04-15T07:36:33;7.20;99.90
43810;DHT22;29440;48.208;11.162;2023-04-15T07:38:58;7.30;99.90
43810;DHT22;29440;48.208;11.162;2023-04-15T07:41:44;7.30;99.90
43810;DHT22;29440;48.208;11.162;2023-04-15T07:44:10;7.50;99.90
43810;DHT22;29440;48.208;11.162;2023-04-15T07:46:36;7.50;99.90
43810;DHT22;29440;48.208;11.162;2023-04-15T07:49:02;7.40;99.90
43810;DHT22;29440;48.208;11.162;2023-04-15T07:51:29;7.50;99.90
43810;DHT22;29440;48.208;11.162;2023-04-15T07:53:55;7.60;99.90
43810;DHT22;29440;48.208;11.162;2023-04-15T07:56:20;7.60;99.90
43810;DHT22;29440;48.208;11.162;2023-04-15T07:58:46;7.80;99.90
43810;DHT22;29440;48.208;11.162;2023-04-15T08:01:12;7.80;99.90
43810;DHT22;29440;48.208;11.162;2023-04-15T08:03:38;7.80;99.90
43810;DHT22;29440;48.208;11.162;2023-04-15T08:06:03;7.80;99.90
43810;DHT22;29440;48.208;11.162;2023-04-15T08:08:29;7.80;99.90
43810;DHT22;29440;48.208;11.162;2023-04-15T08:10:56;7.90;99.90
43810;DHT22;29440;48.208;11.162;2023-04-15T08:13:22;7.90;99.90
43810;DHT22;29440;48.208;11.162;2023-04-15T08:16:21;8.00;99.90
43810;DHT22;29440;48.208;11.162;2023-04-15T08:18:48;8.10;99.90
43810;DHT22;29440;48.208;11.162;2023-04-15T08:21:15;8.20;99.90
43810;DHT22;29440;48.208;11.162;2023-04-15T08:23:42;8.20;99.90
43810;DHT22;29440;48.208;11.162;2023-04-15T08:26:09;8.40;99.90
43810;DHT22;29440;48.208;11.162;2023-04-15T08:28:38;8.50;99.90
43810;DHT22;29440;48.208;11.162;2023-04-15T08:31:04;8.70;99.90
43810;DHT22;29440;48.208;11.162;2023-04-15T08:33:29;8.90;99.90
43810;DHT22;29440;48.208;11.162;2023-04-15T08:35:55;9.00;99.90
43810;DHT22;29440;48.208;11.162;2023-04-15T08:38:25;9.10;99.90
43810;DHT22;29440;48.208;11.162;2023-04-15T08:40:54;9.20;99.90
43810;DHT22;29440;48.208;11.162;2023-04-15T08:43:22;9.30;99.90
43810;DHT22;29440;48.208;11.162;2023-04-15T08:45:53;9.40;99.90
43810;DHT22;29440;48.208;11.162;2023-04-15T08:48:19;9.50;99.90
43810;DHT22;29440;48.208;11.162;2023-04-15T08:50:46;9.60;99.90
43810;DHT22;29440;48.208;11.162;2023-04-15T08:53:12;9.60;99.90
43810;DHT22;29440;48.208;11.162;2023-04-15T08:55:42;9.60;99.90
43810;DHT22;29440;48.208;11.162;2023-04-15T08:58:12;9.60;99.90
43810;DHT22;29440;48.208;11.162;2023-04-15T09:00:39;9.50;99.90
43810;DHT22;29440;48.208;11.162;2023-04-15T09:03:06;9.50;99.90
43810;DHT22;29440;48.208;11.162;2023-04-15T09:05:33;9.40;99.90
43810;DHT22;29440;48.208;11.162;2023-04-15T09:08:00;9.30;99.90
43810;DHT22;29440;48.208;11.162;2023-04-15T09:10:26;9.30;99.90
43810;DHT22;29440;48.208;11.162;2023-04-15T09:12:52;9.20;99.90
43810;DHT22;29440;48.208;11.162;2023-04-15T09:15:17;9.20;99.90
43810;DHT22;29440;48.208;11.162;2023-04-15T09:17:45;9.20;99.90
43810;DHT22;29440;48.208;11.162;2023-04-15T09:20:13;9.20;99.90
43810;DHT22;29440;48.208;11.162;2023-04-15T09:22:40;9.20;99.90
43810;DHT22;29440;48.208;11.162;2023-04-15T09:25:25;9.30;99.90
43810;DHT22;29440;48.208;11.162;2023-04-15T09:27:54;9.30;99.90
43810;DHT22;29440;48.208;11.162;2023-04-15T09:30:20;9.30;99.90
43810;DHT22;29440;48.208;11.162;2023-04-15T09:35:16;9.60;99.90
43810;DHT22;29440;48.208;11.162;2023-04-15T09:37:42;9.50;99.90
43810;DHT22;29440;48.208;11.162;2023-04-15T09:40:08;9.60;99.90
43810;DHT22;29440;48.208;11.162;2023-04-15T09:42:35;9.60;99.90
43810;DHT22;29440;48.208;11.162;2023-04-15T09:45:11;9.70;99.90
43810;DHT22;29440;48.208;11.162;2023-04-15T09:47:37;9.80;99.90
43810;DHT22;29440;48.208;11.162;2023-04-15T09:50:02;10.00;99.90
43810;DHT22;29440;48.208;11.162;2023-04-15T09:52:29;10.00;99.90
43810;DHT22;29440;48.208;11.162;2023-04-15T09:54:57;10.00;99.90
43810;DHT22;29440;48.208;11.162;2023-04-15T09:57:23;10.10;99.90
43810;DHT22;29440;48.208;11.162;2023-04-15T09:59:49;10.20;99.90
43810;DHT22;29440;48.208;11.162;2023-04-15T10:02:17;10.30;99.90
43810;DHT22;29440;48.208;11.162;2023-04-15T10:04:43;10.50;99.90
43810;DHT22;29440;48.208;11.162;2023-04-15T10:07:11;10.50;99.90
43810;DHT22;29440;48.208;11.162;2023-04-15T10:09:37;10.70;99.90
43810;DHT22;29440;48.208;11.162;2023-04-15T10:12:04;10.70;99.90
43810;DHT22;29440;48.208;11.162;2023-04-15T10:14:33;10.80;99.90
43810;DHT22;29440;48.208;11.162;2023-04-15T10:17:01;10.90;99.90
43810;DHT22;29440;48.208;11.162;2023-04-15T10:19:27;10.90;99.90
43810;DHT22;29440;48.208;11.162;2023-04-15T10:21:56;11.10;99.90
43810;DHT22;29440;48.208;11.162;2023-04-15T10:24:23;11.10;99.90
43810;DHT22;29440;48.208;11.162;2023-04-15T10:26:50;11.20;99.90
43810;DHT22;29440;48.208;11.162;2023-04-15T10:29:17;11.30;99.90
43810;DHT22;29440;48.208;11.162;2023-04-15T10:31:45;11.30;99.90
43810;DHT22;29440;48.208;11.162;2023-04-15T10:34:11;11.40;99.90
43810;DHT22;29440;48.208;11.162;2023-04-15T10:36:37;11.40;99.90
43810;DHT22;29440;48.208;11.162;2023-04-15T10:42:09;11.60;99.90
43810;DHT22;29440;48.208;11.162;2023-04-15T10:44:48;11.70;99.90
43810;DHT22;29440;48.208;11.162;2023-04-15T10:47:18;11.70;99.90
43810;DHT22;29440;48.208;11.162;2023-04-15T10:49:50;11.80;99.90
43810;DHT22;29440;48.208;11.162;2023-04-15T10:52:26;11.80;99.90
43810;DHT22;29440;48.208;11.162;2023-04-15T10:55:04;11.90;99.90
43810;DHT22;29440;48.208;11.162;2023-04-15T10:57:38;11.90;99.90
43810;DHT22;29440;48.208;11.162;2023-04-15T11:02:41;12.30;99.90
43810;DHT22;29440;48.208;11.162;2023-04-15T11:05:12;12.20;99.90
43810;DHT22;29440;48.208;11.162;2023-04-15T11:07:56;12.10;99.90
43810;DHT22;29440;48.208;11.162;2023-04-15T11:13:14;12.10;99.90
43810;DHT22;29440;48.208;11.162;2023-04-15T11:15:45;11.90;99.90
43810;DHT22;29440;48.208;11.162;2023-04-15T11:18:18;11.90;99.90
43810;DHT22;29440;48.208;11.162;2023-04-15T11:20:51;11.80;99.90
43810;DHT22;29440;48.208;11.162;2023-04-15T11:23:32;11.70;99.90
43810;DHT22;29440;48.208;11.162;2023-04-15T11:25:59;11.60;99.90
43810;DHT22;29440;48.208;11.162;2023-04-15T11:28:30;11.40;99.90
43810;DHT22;29440;48.208;11.162;2023-04-15T11:30:56;11.30;99.90
43810;DHT22;29440;48.208;11.162;2023-04-15T11:33:23;11.00;99.90
43810;DHT22;29440;48.208;11.162;2023-04-15T11:35:51;10.70;99.90
43810;DHT22;29440;48.208;11.162;2023-04-15T11:38:17;10.50;99.90
43810;DHT22;29440;48.208;11.162;2023-04-15T11:40:43;10.40;99.90
43810;DHT22;29440;48.208;11.162;2023-04-15T11:43:14;10.10;99.90
43810;DHT22;29440;48.208;11.162;2023-04-15T11:46:00;10.00;99.90
43810;DHT22;29440;48.208;11.162;2023-04-15T11:48:30;9.70;99.90
43810;DHT22;29440;48.208;11.162;2023-04-15T11:50:59;9.80;99.90
43810;DHT22;29440;48.208;11.162;2023-04-15T11:53:58;9.70;99.90
43810;DHT22;29440;48.208;11.162;2023-04-15T11:56:25;9.70;99.90
43810;DHT22;29440;48.208;11.162;2023-04-15T11:58:56;9.60;99.90
43810;DHT22;29440;48.208;11.162;2023-04-15T12:01:35;9.60;99.90
43810;DHT22;29440;48.208;11.162;2023-04-15T12:04:16;9.70;99.90
43810;DHT22;29440;48.208;11.162;2023-04-15T12:06:44;9.70;99.90
43810;DHT22;29440;48.208;11.162;2023-04-15T12:09:13;9.80;99.90
43810;DHT22;29440;48.208;11.162;2023-04-15T12:11:50;10.00;99.90
43810;DHT22;29440;48.208;11.162;2023-04-15T12:14:26;10.10;99.90
43810;DHT22;29440;48.208;11.162;2023-04-15T12:17:00;10.20;99.90
43810;DHT22;29440;48.208;11.162;2023-04-15T12:19:35;10.40;99.90
43810;DHT22;29440;48.208;11.162;2023-04-15T12:22:03;10.50;99.90
43810;DHT22;29440;48.208;11.162;2023-04-15T12:24:39;10.70;99.90
43810;DHT22;29440;48.208;11.162;2023-04-15T12:27:09;10.60;99.90
43810;DHT22;29440;48.208;11.162;2023-04-15T12:29:38;10.60;99.90
43810;DHT22;29440;48.208;11.162;2023-04-15T12:32:14;10.70;99.90
43810;DHT22;29440;48.208;11.162;2023-04-15T12:34:50;10.70;99.90
43810;DHT22;29440;48.208;11.162;2023-04-15T12:37:16;10.70;99.90
43810;DHT22;29440;48.208;11.162;2023-04-15T12:39:44;10.70;99.90
43810;DHT22;29440;48.208;11.162;2023-04-15T12:42:10;10.70;99.90
43810;DHT22;29440;48.208;11.162;2023-04-15T12:44:37;10.60;99.90
43810;DHT22;29440;48.208;11.162;2023-04-15T12:47:03;10.60;99.90
43810;DHT22;29440;48.208;11.162;2023-04-15T12:49:29;10.60;99.90
43810;DHT22;29440;48.208;11.162;2023-04-15T12:51:57;10.60;99.90
43810;DHT22;29440;48.208;11.162;2023-04-15T12:54:24;10.60;99.90
43810;DHT22;29440;48.208;11.162;2023-04-15T12:56:52;10.50;99.90
43810;DHT22;29440;48.208;11.162;2023-04-15T12:59:18;10.50;99.90
43810;DHT22;29440;48.208;11.162;2023-04-15T13:01:45;10.50;99.90
43810;DHT22;29440;48.208;11.162;2023-04-15T13:04:11;10.30;99.90
43810;DHT22;29440;48.208;11.162;2023-04-15T13:06:37;10.20;99.90
43810;DHT22;29440;48.208;11.162;2023-04-15T13:09:03;10.20;99.90
43810;DHT22;29440;48.208;11.162;2023-04-15T13:11:32;10.20;99.90
43810;DHT22;29440;48.208;11.162;2023-04-15T13:14:03;10.10;99.90
43810;DHT22;29440;48.208;11.162;2023-04-15T13:16:30;10.00;99.90
43810;DHT22;29440;48.208;11.162;2023-04-15T13:18:57;9.90;99.90
43810;DHT22;29440;48.208;11.162;2023-04-15T13:21:23;9.80;99.90
43810;DHT22;29440;48.208;11.162;2023-04-15T13:23:51;9.80;99.90
43810;DHT22;29440;48.208;11.162;2023-04-15T13:26:17;9.70;99.90
43810;DHT22;29440;48.208;11.162;2023-04-15T13:28:43;9.70;99.90
43810;DHT22;29440;48.208;11.162;2023-04-15T13:31:10;9.60;99.90
43810;DHT22;29440;48.208;11.162;2023-04-15T13:33:36;9.40;99.90
43810;DHT22;29440;48.208;11.162;2023-04-15T13:36:01;9.50;99.90
43810;DHT22;29440;48.208;11.162;2023-04-15T13:38:27;9.40;99.90
43810;DHT22;29440;48.208;11.162;2023-04-15T13:40:53;9.30;99.90
43810;DHT22;29440;48.208;11.162;2023-04-15T13:43:19;9.40;99.90
43810;DHT22;29440;48.208;11.162;2023-04-15T13:45:45;9.40;99.90
43810;DHT22;29440;48.208;11.162;2023-04-15T13:48:11;9.40;99.90
43810;DHT22;29440;48.208;11.162;2023-04-15T13:50:37;9.40;99.90
43810;DHT22;29440;48.208;11.162;2023-04-15T13:53:02;9.40;99.90
43810;DHT22;29440;48.208;11.162;2023-04-15T13:55:28;9.40;99.90
43810;DHT22;29440;48.208;11.162;2023-04-15T13:57:53;9.50;99.90
43810;DHT22;29440;48.208;11.162;2023-04-15T14:00:19;9.50;99.90
43810;DHT22;29440;48.208;11.162;2023-04-15T14:02:44;9.60;99.90
43810;DHT22;29440;48.208;11.162;2023-04-15T14:05:11;9.70;99.90
43810;DHT22;29440;48.208;11.162;2023-04-15T14:07:36;9.70;99.90
43810;DHT22;29440;48.208;11.162;2023-04-15T14:10:02;9.70;99.90
43810;DHT22;29440;48.208;11.162;2023-04-15T14:12:28;9.70;99.90
43810;DHT22;29440;48.208;11.162;2023-04-15T14:14:54;9.70;99.90
43810;DHT22;29440;48.208;11.162;2023-04-15T14:17:19;9.70;99.90
43810;DHT22;29440;48.208;11.162;2023-04-15T14:19:45;9.70;99.90
43810;DHT22;29440;48.208;11.162;2023-04-15T14:22:11;9.70;99.90
43810;DHT22;29440;48.208;11.162;2023-04-15T14:24:36;9.70;99.90
43810;DHT22;29440;48.208;11.162;2023-04-15T14:27:02;9.70;99.90
43810;DHT22;29440;48.208;11.162;2023-04-15T14:29:28;9.80;99.90
43810;DHT22;29440;48.208;11.162;2023-04-15T14:31:53;9.80;99.90
43810;DHT22;29440;48.208;11.162;2023-04-15T14:34:22;9.80;99.90
43810;DHT22;29440;48.208;11.162;2023-04-15T14:36:50;9.80;99.90
43810;DHT22;29440;48.208;11.162;2023-04-15T14:39:17;9.70;99.90
43810;DHT22;29440;48.208;11.162;2023-04-15T14:41:43;9.70;99.90
43810;DHT22;29440;48.208;11.162;2023-04-15T14:44:08;9.60;99.90
43810;DHT22;29440;48.208;11.162;2023-04-15T14:46:36;9.50;99.90
43810;DHT22;29440;48.208;11.162;2023-04-15T14:49:02;9.50;99.90
43810;DHT22;29440;48.208;11.162;2023-04-15T14:51:27;9.50;99.90
43810;DHT22;29440;48.208;11.162;2023-04-15T14:53:53;9.50;99.90
43810;DHT22;29440;48.208;11.162;2023-04-15T14:56:18;9.50;99.90
43810;DHT22;29440;48.208;11.162;2023-04-15T14:58:44;9.30;99.90
43810;DHT22;29440;48.208;11.162;2023-04-15T15:01:10;9.20;99.90
43810;DHT22;29440;48.208;11.162;2023-04-15T15:03:35;9.10;99.90
43810;DHT22;29440;48.208;11.162;2023-04-15T15:06:01;9.00;99.90
43810;DHT22;29440;48.208;11.162;2023-04-15T15:08:26;9.00;99.90
43810;DHT22;29440;48.208;11.162;2023-04-15T15:10:52;9.00;99.90
43810;DHT22;29440;48.208;11.162;2023-04-15T15:13:18;9.00;99.90
43810;DHT22;29440;48.208;11.162;2023-04-15T15:15:43;8.90;99.90
43810;DHT22;29440;48.208;11.162;2023-04-15T15:18:09;8.90;99.90
43810;DHT22;29440;48.208;11.162;2023-04-15T15:20:35;8.90;99.90
43810;DHT22;29440;48.208;11.162;2023-04-15T15:23:01;8.90;99.90
43810;DHT22;29440;48.208;11.162;2023-04-15T15:25:27;8.80;99.90
43810;DHT22;29440;48.208;11.162;2023-04-15T15:27:53;8.80;99.90
43810;DHT22;29440;48.208;11.162;2023-04-15T15:30:18;8.80;99.90
43810;DHT22;29440;48.208;11.162;2023-04-15T15:32:44;8.70;99.90
43810;DHT22;29440;48.208;11.162;2023-04-15T15:35:09;8.60;99.90
43810;DHT22;29440;48.208;11.162;2023-04-15T15:37:36;8.60;99.90
43810;DHT22;29440;48.208;11.162;2023-04-15T15:40:05;8.50;99.90
43810;DHT22;29440;48.208;11.162;2023-04-15T15:42:31;8.60;99.90